Terminal Aerodrome Forecast
Issued by NWS Mt. Holly, NJ

Current Version | Previous Version | Text Only | Print | Product List | Glossary On
Versions: 1 2 3 4 5 6 7 8 9 10 11 12 13 14 15 16 17 18 19
000
FTUS41 KPHI 300903 AAB
TAFRDG
TAF AMD
KRDG 300903Z 3009/3106 20008KT P6SM VCSH OVC060
     FM301300 23010G18KT P6SM BKN040
     FM301600 28014G24KT P6SM SCT040 BKN100
     FM302000 29016G26KT P6SM SCT050
     FM302300 28010KT P6SM SCT050=

USA.gov is the U.S. government's official web portal to all federal, state and local government web resources and services.